Time;durP1;ratioP1;P1;durP2;ratioP2;P2;SDS_P1;SDS_P2;PMS_P1;PMS_P2;Temp;Humidity;BMP_temperature;BMP_pressure;BME280_temperature;BME280_humidity;BME280_pressure;Samples;Min_cycle;Max_cycle;Signal;HPM_P1;HPM_P2
2023/07/13 00:01:49;;;;;;;3.55;1.50;;;;;;;13.33;87.62;98565.88;5064895;28;20043;-38
2023/07/13 00:04:17;;;;;;;3.03;1.73;;;;;;;13.32;87.93;98564.22;5062218;28;20059;-38
2023/07/13 00:06:47;;;;;;;3.58;1.63;;;;;;;13.35;87.78;98563.16;5046992;28;20036;-38
2023/07/13 00:09:15;;;;;;;4.88;1.60;;;;;;;13.38;87.66;98568.22;5064586;28;20044;-38
2023/07/13 00:11:41;;;;;;;2.90;1.88;;;;;;;13.37;87.78;98558.69;5066284;28;20523;-37
2023/07/13 00:14:08;;;;;;;3.08;1.90;;;;;;;13.37;88.02;98567.38;5065257;28;20037;-37
2023/07/13 00:16:35;;;;;;;3.28;1.50;;;;;;;13.38;88.09;98558.59;5055549;28;20402;-40
2023/07/13 00:19:02;;;;;;;3.78;1.70;;;;;;;13.33;88.24;98563.28;5046488;28;20041;-38
2023/07/13 00:21:28;;;;;;;4.65;2.00;;;;;;;13.33;88.24;98565.88;5065499;28;20040;-38
2023/07/13 00:23:54;;;;;;;3.13;2.00;;;;;;;13.32;88.35;98556.38;5066602;28;20117;-38
2023/07/13 00:26:20;;;;;;;3.63;2.05;;;;;;;13.34;88.44;98562.34;5066551;28;20427;-38
2023/07/13 00:28:45;;;;;;;3.75;2.03;;;;;;;13.24;88.36;98535.13;5066208;28;20029;-38
2023/07/13 00:31:14;;;;;;;3.30;1.65;;;;;;;13.34;88.28;98557.13;5066280;28;20043;-38
2023/07/13 00:33:41;;;;;;;2.97;1.75;;;;;;;13.32;88.62;98560.75;5045797;28;20108;-38
2023/07/13 00:36:08;;;;;;;4.55;1.50;;;;;;;13.33;88.75;98552.00;5065373;28;20044;-37
2023/07/13 00:38:35;;;;;;;3.88;1.65;;;;;;;13.33;89.00;98546.78;5048140;28;20524;-37
2023/07/13 00:41:03;;;;;;;2.53;1.63;;;;;;;13.31;88.97;98556.47;5047470;28;20074;-38
2023/07/13 00:43:30;;;;;;;2.60;1.80;;;;;;;13.33;89.20;98557.22;5066439;28;20040;-38
2023/07/13 00:45:56;;;;;;;4.60;1.42;;;;;;;13.37;88.98;98561.31;5066128;28;20526;-38
2023/07/13 00:48:26;;;;;;;3.13;1.90;;;;;;;13.37;89.10;98558.69;5063969;28;20500;-37
2023/07/13 00:50:53;;;;;;;3.53;1.83;;;;;;;13.35;89.14;98555.31;5065443;28;20302;-38
2023/07/13 00:53:20;;;;;;;2.95;2.30;;;;;;;13.21;89.41;98532.72;5047720;28;20048;-38
2023/07/13 00:55:47;;;;;;;5.47;2.15;;;;;;;13.30;88.98;98539.97;5020396;28;20065;-37
2023/07/13 00:58:16;;;;;;;5.25;2.50;;;;;;;13.30;89.08;98526.06;5050707;28;20037;-38
2023/07/13 01:00:42;;;;;;;3.47;1.77;;;;;;;13.41;89.06;98554.94;5047749;28;20125;-37
2023/07/13 01:03:08;;;;;;;3.20;2.00;;;;;;;13.42;88.97;98543.56;5046066;28;20481;-37
2023/07/13 01:05:35;;;;;;;2.85;1.70;;;;;;;13.41;89.29;98539.28;5047452;28;20119;-37
2023/07/13 01:08:03;;;;;;;3.03;1.90;;;;;;;13.21;89.13;98503.19;5049136;28;20045;-38
2023/07/13 01:10:29;;;;;;;2.67;1.80;;;;;;;13.28;89.28;98520.97;5047790;28;20093;-39
2023/07/13 01:12:55;;;;;;;3.03;1.88;;;;;;;13.51;89.02;98538.59;5067085;28;20359;-38
2023/07/13 01:15:40;;;;;;;2.92;2.00;;;;;;;13.44;89.12;98542.56;5048024;28;20047;-38
2023/07/13 01:18:19;;;;;;;2.33;1.75;;;;;;;13.41;89.15;98542.72;5067116;28;20047;-38
2023/07/13 01:21:04;;;;;;;4.70;2.85;;;;;;;13.36;89.51;98539.56;5064765;28;20043;-38
2023/07/13 01:23:31;;;;;;;8.43;3.60;;;;;;;13.39;89.66;98543.78;5044932;28;20055;-39
2023/07/13 01:25:58;;;;;;;4.75;2.60;;;;;;;13.40;89.61;98540.22;5043646;28;20480;-38
2023/07/13 01:28:26;;;;;;;6.25;2.88;;;;;;;13.41;89.63;98532.28;5052466;28;20700;-38
2023/07/13 01:30:55;;;;;;;5.68;2.55;;;;;;;13.31;89.56;98518.16;5036251;28;20429;-38
2023/07/13 01:33:22;;;;;;;4.90;2.38;;;;;;;13.49;89.39;98530.03;5066482;28;20074;-38
2023/07/13 01:35:49;;;;;;;2.63;1.77;;;;;;;13.35;89.18;98509.19;5064771;28;20581;-38
2023/07/13 01:38:18;;;;;;;4.13;2.65;;;;;;;13.46;89.47;98529.38;5060736;28;20041;-38
2023/07/13 01:40:44;;;;;;;4.35;2.10;;;;;;;13.43;89.53;98526.97;5064411;28;20039;-38
2023/07/13 01:43:10;;;;;;;4.85;2.88;;;;;;;13.32;89.60;98509.41;5051375;28;20055;-39
2023/07/13 01:45:36;;;;;;;5.82;2.88;;;;;;;13.46;89.46;98527.59;5060134;28;20044;-39
2023/07/13 01:48:02;;;;;;;4.43;2.22;;;;;;;13.51;89.55;98535.16;5051789;28;20037;-39
2023/07/13 01:50:28;;;;;;;4.50;2.22;;;;;;;13.52;89.49;98529.81;5062463;28;20044;-37
2023/07/13 01:52:54;;;;;;;3.97;2.10;;;;;;;13.52;89.37;98535.06;5036185;28;20122;-38
2023/07/13 01:55:20;;;;;;;4.28;2.30;;;;;;;13.52;89.47;98529.81;5067272;28;20555;-38
2023/07/13 01:57:47;;;;;;;3.00;2.13;;;;;;;13.57;89.36;98530.38;5066046;28;20139;-38
2023/07/13 02:00:13;;;;;;;3.63;2.00;;;;;;;13.56;89.38;98527.84;5066345;28;20135;-38
2023/07/13 02:02:42;;;;;;;3.90;2.10;;;;;;;13.59;89.15;98532.88;5065518;28;20040;-38
2023/07/13 02:05:10;;;;;;;3.90;2.55;;;;;;;13.57;89.48;98522.53;5065527;28;20075;-38
2023/07/13 02:07:36;;;;;;;3.75;2.30;;;;;;;13.60;89.22;98518.06;5063030;28;20040;-38
2023/07/13 02:10:03;;;;;;;5.43;2.40;;;;;;;13.65;89.21;98516.81;5049977;28;20694;-38
2023/07/13 02:12:30;;;;;;;4.32;2.33;;;;;;;13.67;89.03;98507.09;5068705;28;20458;-38
2023/07/13 02:14:56;;;;;;;3.45;2.00;;;;;;;13.74;89.01;98510.16;5018115;28;20465;-38
2023/07/13 02:17:22;;;;;;;3.45;2.15;;;;;;;13.70;88.60;98512.13;5065314;28;20037;-38
2023/07/13 02:19:48;;;;;;;2.65;1.80;;;;;;;13.68;88.64;98505.31;5073756;28;20107;-38
2023/07/13 02:22:14;;;;;;;4.25;2.20;;;;;;;13.67;88.66;98517.53;5070125;28;20044;-38
2023/07/13 02:24:40;;;;;;;2.45;2.03;;;;;;;13.69;88.99;98509.63;5067475;28;20043;-38
2023/07/13 02:27:06;;;;;;;5.22;2.33;;;;;;;13.74;88.92;98507.53;5058195;28;20048;-39
2023/07/13 02:29:32;;;;;;;5.05;3.25;;;;;;;13.77;88.38;98512.53;5061327;28;20041;-37
2023/07/13 02:31:58;;;;;;;10.27;3.15;;;;;;;13.78;88.42;98514.22;5051999;28;20077;-38
2023/07/13 02:34:24;;;;;;;5.20;2.92;;;;;;;13.68;88.35;98487.88;5068788;28;20033;-38
2023/07/13 02:36:50;;;;;;;9.00;2.90;;;;;;;13.78;88.50;98509.00;5069294;28;20051;-38
2023/07/13 02:39:16;;;;;;;5.65;2.80;;;;;;;13.74;88.58;98503.16;5060559;28;20033;-37
2023/07/13 02:41:42;;;;;;;4.35;2.30;;;;;;;13.72;88.65;98507.63;5080708;28;20032;-38
2023/07/13 02:44:08;;;;;;;2.63;2.03;;;;;;;13.71;88.78;98505.94;5055003;28;20040;-38
2023/07/13 02:46:36;;;;;;;5.53;2.47;;;;;;;13.72;88.80;98505.03;5063058;28;20037;-37
2023/07/13 02:49:03;;;;;;;3.33;2.30;;;;;;;13.74;88.57;98510.16;5034059;28;20089;-37
2023/07/13 02:51:29;;;;;;;4.65;2.03;;;;;;;13.70;88.64;98511.28;5067712;28;20051;-38
2023/07/13 02:53:56;;;;;;;6.55;2.33;;;;;;;13.62;89.06;98501.34;5064095;28;20060;-39
2023/07/13 02:56:24;;;;;;;3.83;2.58;;;;;;;13.70;88.99;98506.91;5040745;28;20041;-38
2023/07/13 02:58:51;;;;;;;4.28;2.50;;;;;;;13.73;88.73;98508.47;5055301;28;20158;-39
2023/07/13 03:01:18;;;;;;;5.07;2.10;;;;;;;13.69;88.71;98512.22;5065866;28;20076;-38
2023/07/13 03:03:46;;;;;;;5.22;2.20;;;;;;;13.54;88.79;98478.34;5049887;28;20126;-38
2023/07/13 03:06:13;;;;;;;5.78;2.22;;;;;;;13.69;88.77;98499.16;5060954;28;20429;-38
2023/07/13 03:08:49;;;;;;;3.67;2.13;;;;;;;13.55;88.81;98468.75;5050156;28;20040;-39
2023/07/13 03:11:19;;;;;;;3.67;2.03;;;;;;;13.73;88.71;98498.03;5054816;28;20106;-38
2023/07/13 03:13:49;;;;;;;5.45;2.53;;;;;;;13.56;88.80;98471.25;5047714;28;20151;-38
2023/07/13 03:16:16;;;;;;;4.15;2.50;;;;;;;13.73;88.98;98496.25;5078451;28;20489;-37
2023/07/13 03:18:46;;;;;;;4.55;2.22;;;;;;;13.72;88.72;98491.13;5048099;28;20602;-38
2023/07/13 03:21:12;;;;;;;3.80;2.03;;;;;;;13.74;88.61;98511.00;5071648;28;20052;-38
2023/07/13 03:23:40;;;;;;;4.72;2.30;;;;;;;13.73;88.76;98501.47;5033939;28;20047;-39
2023/07/13 03:26:09;;;;;;;3.50;2.00;;;;;;;13.70;89.01;98500.84;5067612;28;20044;-38
2023/07/13 03:28:36;;;;;;;4.38;2.13;;;;;;;13.68;89.10;98507.94;5061499;28;20041;-38
2023/07/13 03:31:10;;;;;;;4.30;2.28;;;;;;;13.76;89.13;98503.06;5038390;28;20052;-39
2023/07/13 03:33:36;;;;;;;3.55;2.45;;;;;;;13.79;88.83;98502.84;5067158;28;20040;-38
2023/07/13 03:36:08;;;;;;;3.28;2.17;;;;;;;13.84;88.66;98506.00;5057197;28;20040;-39
2023/07/13 03:38:34;;;;;;;4.80;2.50;;;;;;;13.95;88.56;98512.19;5067397;28;20040;-38
2023/07/13 03:41:02;;;;;;;4.07;2.10;;;;;;;13.99;88.01;98511.03;5058085;28;20048;-38
2023/07/13 03:43:30;;;;;;;2.55;1.80;;;;;;;14.05;87.77;98503.72;5068334;28;20530;-38
2023/07/13 03:45:56;;;;;;;5.22;2.55;;;;;;;13.98;87.62;98513.75;5055189;28;20122;-38
2023/07/13 03:48:22;;;;;;;3.78;2.40;;;;;;;13.99;87.62;98503.19;5047217;28;20037;-37
2023/07/13 03:50:49;;;;;;;4.82;2.30;;;;;;;14.02;87.67;98514.41;5057017;28;20049;-39
2023/07/13 03:53:15;;;;;;;5.45;2.38;;;;;;;14.08;87.76;98508.75;5066058;28;20048;-38
2023/07/13 03:55:41;;;;;;;3.80;2.10;;;;;;;14.14;87.24;98510.94;5047774;28;20041;-38
2023/07/13 03:58:24;;;;;;;5.45;2.10;;;;;;;14.20;87.08;98513.13;5030056;28;20044;-38
2023/07/13 04:00:53;;;;;;;4.20;2.90;;;;;;;14.29;86.49;98508.13;5054683;28;20055;-39
2023/07/13 04:03:18;;;;;;;4.70;2.03;;;;;;;14.41;86.10;98512.56;5067609;28;20024;-38
2023/07/13 04:05:44;;;;;;;2.60;1.73;;;;;;;14.51;85.74;98511.91;5059837;28;20547;-38
2023/07/13 04:08:12;;;;;;;4.32;2.08;;;;;;;14.31;85.30;98487.94;5064927;28;20065;-39
2023/07/13 04:10:38;;;;;;;4.72;2.22;;;;;;;14.44;85.03;98521.97;5048198;28;20427;-38
2023/07/13 04:13:05;;;;;;;4.57;2.63;;;;;;;14.43;85.00;98517.69;5049737;28;20047;-41
2023/07/13 04:15:32;;;;;;;10.43;2.40;;;;;;;14.45;85.13;98518.41;5060473;28;20580;-38
2023/07/13 04:17:58;;;;;;;4.07;1.98;;;;;;;14.44;84.77;98516.75;5065466;28;20044;-37
2023/07/13 04:20:27;;;;;;;7.80;2.25;;;;;;;14.50;85.07;98529.38;5066721;28;20036;-42
2023/07/13 04:22:55;;;;;;;5.10;2.40;;;;;;;14.56;84.99;98522.88;5057304;28;20440;-42
2023/07/13 04:25:21;;;;;;;4.68;2.45;;;;;;;14.57;84.86;98520.19;5029931;28;20045;-42
2023/07/13 04:27:47;;;;;;;7.05;3.55;;;;;;;14.64;84.45;98515.38;5047514;28;20036;-42
2023/07/13 04:30:13;;;;;;;7.85;4.75;;;;;;;14.63;84.59;98516.31;5063238;28;20499;-43
2023/07/13 04:32:39;;;;;;;7.57;2.92;;;;;;;14.66;84.63;98514.31;5068612;28;20040;-43
2023/07/13 04:35:05;;;;;;;5.75;3.50;;;;;;;14.51;84.13;98483.13;5066018;28;20353;-43
2023/07/13 04:37:31;;;;;;;6.00;2.20;;;;;;;14.67;83.86;98521.22;5066628;28;20043;-42
2023/07/13 04:39:58;;;;;;;12.73;5.65;;;;;;;14.43;83.80;98470.63;5070713;28;20048;-43
2023/07/13 04:42:24;;;;;;;4.97;2.90;;;;;;;14.65;83.89;98522.28;5066659;28;20047;-42
2023/07/13 04:44:51;;;;;;;12.63;5.93;;;;;;;14.69;84.10;98511.50;5067318;28;20490;-41
2023/07/13 04:47:17;;;;;;;7.15;4.72;;;;;;;14.77;83.80;98511.78;5068063;28;20092;-43
2023/07/13 04:49:44;;;;;;;6.97;2.90;;;;;;;14.88;83.24;98508.41;5067776;28;20040;-43
2023/07/13 04:52:10;;;;;;;7.57;2.15;;;;;;;14.96;82.96;98505.25;5082325;28;20539;-37
2023/07/13 04:54:37;;;;;;;5.10;1.98;;;;;;;14.90;82.45;98509.16;5066751;28;20060;-39
2023/07/13 04:57:06;;;;;;;4.35;2.22;;;;;;;14.92;82.95;98517.72;5066694;28;20036;-39
2023/07/13 04:59:34;;;;;;;4.57;2.22;;;;;;;15.02;82.47;98516.09;5061310;28;20535;-39
2023/07/13 05:02:01;;;;;;;8.13;2.10;;;;;;;15.06;82.32;98511.50;5064525;28;20078;-40
2023/07/13 05:04:27;;;;;;;7.32;2.33;;;;;;;15.01;81.98;98482.22;5069339;28;20082;-39
2023/07/13 05:06:53;;;;;;;3.35;2.05;;;;;;;15.41;81.51;98516.81;5070994;28;20045;-38
2023/07/13 05:09:19;;;;;;;4.93;2.20;;;;;;;15.52;80.41;98503.81;5053491;28;20051;-38
2023/07/13 05:11:45;;;;;;;3.92;2.33;;;;;;;15.79;79.97;98530.63;5071178;28;20036;-41
2023/07/13 05:14:11;;;;;;;4.20;2.60;;;;;;;15.95;78.91;98531.16;5053341;28;20044;-39
2023/07/13 05:16:37;;;;;;;3.28;2.28;;;;;;;15.91;78.06;98534.13;5068681;28;20413;-38
2023/07/13 05:19:03;;;;;;;3.28;2.60;;;;;;;15.92;78.35;98534.00;5069691;28;20037;-38
2023/07/13 05:21:29;;;;;;;4.15;1.98;;;;;;;15.82;77.41;98511.19;5067747;28;20040;-38
2023/07/13 05:23:56;;;;;;;4.75;2.17;;;;;;;16.00;76.96;98533.44;5053130;28;20567;-38
2023/07/13 05:26:22;;;;;;;3.58;1.80;;;;;;;16.16;76.24;98520.00;5071321;28;20095;-37
2023/07/13 05:28:48;;;;;;;6.03;2.20;;;;;;;16.25;75.46;98521.91;5049414;28;20058;-39
2023/07/13 05:31:14;;;;;;;4.97;2.33;;;;;;;16.16;74.52;98493.78;5068103;28;20135;-39
2023/07/13 05:33:40;;;;;;;5.18;2.60;;;;;;;16.35;74.10;98512.41;5067466;28;20040;-39
2023/07/13 05:36:06;;;;;;;3.97;2.50;;;;;;;16.45;73.88;98514.19;5068461;28;20037;-39
2023/07/13 05:38:33;;;;;;;2.17;1.33;;;;;;;16.53;73.52;98518.88;5067917;28;20044;-39
2023/07/13 05:40:59;;;;;;;6.38;2.22;;;;;;;16.45;73.52;98518.59;5067879;28;20863;-39
2023/07/13 05:43:25;;;;;;;4.32;2.10;;;;;;;16.62;73.47;98522.59;5069890;28;20182;-39
2023/07/13 05:45:55;;;;;;;4.85;2.28;;;;;;;16.78;72.72;98517.81;5051311;28;20039;-40
2023/07/13 05:48:21;;;;;;;6.57;2.45;;;;;;;16.74;72.06;98511.16;5070110;28;20043;-39
2023/07/13 05:50:47;;;;;;;5.22;1.98;;;;;;;16.72;71.24;98513.06;5068295;28;20040;-39
2023/07/13 05:53:13;;;;;;;3.85;1.70;;;;;;;16.68;70.45;98514.25;5050573;28;20078;-39
2023/07/13 05:55:44;;;;;;;6.43;1.88;;;;;;;16.67;70.72;98509.94;5072714;28;20045;-40
2023/07/13 05:58:11;;;;;;;3.25;1.92;;;;;;;16.72;70.46;98505.19;5048662;28;20170;-40
2023/07/13 06:00:37;;;;;;;3.78;1.88;;;;;;;16.90;69.86;98501.13;5049179;28;20836;-37
2023/07/13 06:03:03;;;;;;;2.60;1.90;;;;;;;17.15;68.93;98502.63;5063532;28;20036;-46
2023/07/13 06:05:29;;;;;;;3.65;1.80;;;;;;;17.12;67.95;98497.59;5069910;28;20127;-38
2023/07/13 06:07:55;;;;;;;3.58;2.30;;;;;;;17.00;67.98;98486.31;5069750;28;20036;-38
2023/07/13 06:10:21;;;;;;;3.78;1.98;;;;;;;16.96;67.15;98492.72;5070220;28;20059;-38
2023/07/13 06:12:47;;;;;;;8.75;2.95;;;;;;;17.02;67.07;98491.41;5052387;28;20044;-39
2023/07/13 06:15:13;;;;;;;4.95;1.90;;;;;;;17.20;66.65;98482.91;5068262;28;20036;-38
2023/07/13 06:17:39;;;;;;;2.65;1.80;;;;;;;17.36;66.19;98478.09;5070359;28;20056;-38
2023/07/13 06:20:06;;;;;;;3.25;1.90;;;;;;;17.49;65.40;98477.06;5034745;28;20501;-38
2023/07/13 06:22:32;;;;;;;5.28;1.83;;;;;;;17.50;65.10;98482.22;5069533;28;20044;-38
2023/07/13 06:24:58;;;;;;;3.65;1.90;;;;;;;17.74;64.19;98484.66;5068676;28;20067;-40
2023/07/13 06:27:24;;;;;;;4.38;2.03;;;;;;;17.86;63.55;98488.06;5068450;28;20487;-39
2023/07/13 06:29:50;;;;;;;4.35;2.03;;;;;;;17.99;63.46;98478.19;5068719;28;20063;-39
2023/07/13 06:32:15;;;;;;;3.25;1.85;;;;;;;18.14;63.28;98482.16;5068675;28;20106;-38
2023/07/13 06:34:41;;;;;;;2.88;1.88;;;;;;;18.43;62.40;98475.25;5068640;28;20140;-39
2023/07/13 06:37:08;;;;;;;8.63;1.85;;;;;;;18.45;61.69;98477.75;5069420;28;20044;-39
2023/07/13 06:39:34;;;;;;;5.63;2.00;;;;;;;18.19;61.39;98482.63;5069706;28;20044;-40
2023/07/13 06:42:00;;;;;;;4.53;2.15;;;;;;;18.04;62.01;98479.47;5069608;28;20063;-38
2023/07/13 06:44:26;;;;;;;3.17;2.05;;;;;;;17.90;62.17;98490.31;5069501;28;20048;-40
2023/07/13 06:46:52;;;;;;;4.93;2.75;;;;;;;17.65;62.66;98477.53;5068635;28;20512;-38
2023/07/13 06:49:18;;;;;;;3.08;1.90;;;;;;;17.44;63.55;98482.72;5068050;28;20533;-38
2023/07/13 06:51:43;;;;;;;3.95;1.80;;;;;;;17.30;63.80;98473.34;5051255;28;20040;-38
2023/07/13 06:54:09;;;;;;;4.75;2.17;;;;;;;17.27;64.39;98478.00;5069311;28;20056;-38
2023/07/13 06:56:35;;;;;;;6.90;2.42;;;;;;;17.45;64.42;98475.66;5067842;28;20071;-39
2023/07/13 06:59:01;;;;;;;4.35;2.22;;;;;;;17.24;64.41;98430.97;5069321;28;20072;-39
2023/07/13 07:01:27;;;;;;;5.47;2.75;;;;;;;17.45;64.58;98466.00;5065544;28;20130;-39
2023/07/13 07:03:53;;;;;;;8.52;2.95;;;;;;;17.47;64.51;98471.97;5063869;28;20044;-39
2023/07/13 07:06:24;;;;;;;4.35;2.22;;;;;;;17.31;64.33;98443.50;5068139;28;20153;-38
2023/07/13 07:08:51;;;;;;;9.02;2.25;;;;;;;17.59;63.99;98460.47;5049279;28;20064;-39
2023/07/13 07:11:23;;;;;;;5.78;2.22;;;;;;;17.65;63.00;98467.00;5064857;28;20036;-39
2023/07/13 07:13:49;;;;;;;7.18;2.97;;;;;;;17.85;62.38;98471.44;5066331;28;20040;-39
2023/07/13 07:16:16;;;;;;;3.58;2.05;;;;;;;18.02;61.56;98470.88;5066934;28;20522;-37
2023/07/13 07:18:41;;;;;;;3.15;1.85;;;;;;;18.21;61.48;98470.19;5065674;28;20040;-39
2023/07/13 07:21:08;;;;;;;6.97;1.70;;;;;;;18.25;60.48;98484.72;5067026;28;20043;-39
2023/07/13 07:23:34;;;;;;;4.78;2.03;;;;;;;18.19;59.72;98480.81;5066217;28;20114;-38
2023/07/13 07:25:59;;;;;;;8.05;2.35;;;;;;;18.17;59.66;98489.78;5067630;28;20040;-39
2023/07/13 07:28:28;;;;;;;4.70;2.60;;;;;;;18.08;59.99;98487.94;5057577;28;20029;-39
2023/07/13 07:30:57;;;;;;;5.00;1.97;;;;;;;17.92;60.39;98483.13;5048585;28;20045;-39
2023/07/13 07:33:24;;;;;;;4.25;1.83;;;;;;;17.65;60.55;98475.72;5077428;28;20044;-38
2023/07/13 07:35:50;;;;;;;5.38;2.25;;;;;;;17.57;60.45;98501.78;5057884;28;20056;-38
2023/07/13 07:38:16;;;;;;;4.10;1.77;;;;;;;17.51;60.99;98490.94;5046783;28;20497;-38
2023/07/13 07:40:42;;;;;;;7.50;1.98;;;;;;;17.37;61.39;98492.06;5053501;28;20105;-39
2023/07/13 07:43:10;;;;;;;6.20;2.42;;;;;;;17.34;62.50;98494.94;5066145;28;20032;-39
2023/07/13 07:45:37;;;;;;;5.25;2.38;;;;;;;17.30;63.23;98511.91;5033262;28;20040;-39
2023/07/13 07:48:04;;;;;;;4.55;2.05;;;;;;;17.13;64.12;98510.63;5064984;28;20029;-38
2023/07/13 07:50:31;;;;;;;5.32;1.92;;;;;;;16.90;65.00;98495.88;5067192;28;20052;-38
2023/07/13 07:52:57;;;;;;;6.82;2.80;;;;;;;16.80;66.05;98480.00;5060285;28;20060;-38
2023/07/13 07:55:25;;;;;;;5.72;2.13;;;;;;;16.91;66.96;98497.50;5067200;28;20044;-38
2023/07/13 07:57:50;;;;;;;5.22;3.05;;;;;;;16.84;67.33;98497.19;5051911;28;20131;-39
2023/07/13 08:00:17;;;;;;;8.35;1.98;;;;;;;16.81;67.92;98491.31;5067033;28;20048;-39
2023/07/13 08:02:43;;;;;;;4.97;2.50;;;;;;;16.82;67.96;98491.22;5058858;28;20045;-39
2023/07/13 08:05:10;;;;;;;6.50;2.30;;;;;;;16.85;68.30;98490.97;5063280;28;20459;-39
2023/07/13 08:07:37;;;;;;;7.47;2.58;;;;;;;16.91;68.30;98489.63;5064847;28;20091;-39
2023/07/13 08:10:04;;;;;;;5.85;2.50;;;;;;;16.88;68.36;98500.41;5064527;28;20428;-38
2023/07/13 08:12:37;;;;;;;7.72;2.50;;;;;;;16.93;68.14;98504.34;5066097;28;20055;-39
2023/07/13 08:15:03;;;;;;;3.67;2.35;;;;;;;17.03;68.37;98487.84;5066707;28;20550;-39
2023/07/13 08:17:31;;;;;;;4.75;2.20;;;;;;;17.08;68.54;98494.41;5083040;28;20102;-39
2023/07/13 08:19:57;;;;;;;3.25;2.10;;;;;;;17.07;68.22;98499.75;5062596;28;20048;-39
2023/07/13 08:22:23;;;;;;;3.63;2.33;;;;;;;17.03;67.87;98501.81;5067978;28;20036;-39
2023/07/13 08:24:55;;;;;;;9.35;3.03;;;;;;;16.98;68.12;98503.13;5067745;28;20068;-41
2023/07/13 08:27:23;;;;;;;8.85;2.67;;;;;;;16.96;68.17;98495.34;5065337;28;20067;-39
2023/07/13 08:29:49;;;;;;;3.42;2.17;;;;;;;16.91;68.46;98500.97;5065904;28;20040;-40
2023/07/13 08:32:15;;;;;;;7.13;2.03;;;;;;;16.90;68.40;98501.13;5058921;28;20048;-39
2023/07/13 08:34:41;;;;;;;4.07;2.10;;;;;;;16.76;68.83;98496.94;5061729;28;20063;-38
2023/07/13 08:37:09;;;;;;;5.10;2.97;;;;;;;16.80;69.03;98500.19;5066955;28;20047;-39
2023/07/13 08:39:35;;;;;;;7.75;2.97;;;;;;;16.82;69.35;98500.88;5042815;28;20135;-38
2023/07/13 08:42:18;;;;;;;4.38;2.53;;;;;;;16.85;69.49;98509.34;5079559;28;20071;-38
2023/07/13 08:45:06;;;;;;;4.72;2.15;;;;;;;16.91;69.48;98515.91;5048417;28;20083;-39
2023/07/13 08:47:35;;;;;;;4.93;2.50;;;;;;;16.80;69.23;98506.25;5058436;28;20143;-40
2023/07/13 08:50:02;;;;;;;7.40;2.10;;;;;;;16.77;69.46;98503.88;5041576;28;20124;-40
2023/07/13 08:52:34;;;;;;;3.67;2.28;;;;;;;16.81;69.58;98528.06;5052643;28;20052;-39
2023/07/13 08:55:06;;;;;;;6.30;2.17;;;;;;;16.69;70.67;98521.19;5063881;28;20049;-38
2023/07/13 08:57:34;;;;;;;5.43;1.90;;;;;;;16.41;71.81;98499.66;5063130;28;20041;-40
2023/07/13 09:00:00;;;;;;;2.88;1.70;;;;;;;16.39;73.07;98527.78;5049980;28;20080;-39
2023/07/13 09:02:32;;;;;;;4.35;2.47;;;;;;;16.34;74.78;98523.84;5059274;28;20141;-39
2023/07/13 09:05:13;;;;;;;5.28;1.98;;;;;;;16.30;75.21;98525.88;5065918;28;20105;-38
2023/07/13 09:08:08;;;;;;;4.00;2.17;;;;;;;16.21;75.68;98536.22;5063789;28;20115;-38
2023/07/13 09:10:47;;;;;;;5.30;2.17;;;;;;;16.06;77.36;98525.09;5066071;28;20059;-38
2023/07/13 09:13:21;;;;;;;6.68;1.95;;;;;;;15.87;79.58;98549.22;5064717;28;20436;-38
2023/07/13 09:15:49;;;;;;;3.22;2.10;;;;;;;15.85;80.07;98537.19;5065407;28;20543;-38
2023/07/13 09:18:21;;;;;;;7.30;3.08;;;;;;;15.83;81.64;98536.47;5052632;28;20495;-39
2023/07/13 09:20:58;;;;;;;5.03;2.50;;;;;;;15.74;82.53;98543.22;5061873;28;20071;-38
2023/07/13 09:23:26;;;;;;;5.28;2.65;;;;;;;15.59;83.74;98542.56;5066890;28;20040;-37
2023/07/13 09:25:58;;;;;;;4.30;2.33;;;;;;;15.46;85.16;98546.13;5063846;28;20029;-45
2023/07/13 09:28:27;;;;;;;7.55;2.70;;;;;;;15.26;87.35;98544.97;5058812;28;20047;-37
2023/07/13 09:30:55;;;;;;;4.93;3.03;;;;;;;15.26;88.10;98545.78;5029967;28;20079;-38
2023/07/13 09:33:22;;;;;;;5.20;2.75;;;;;;;15.11;89.58;98515.47;5061421;28;20067;-38
2023/07/13 09:35:49;;;;;;;4.95;2.80;;;;;;;15.32;89.71;98549.75;5045705;28;20079;-37
2023/07/13 09:38:17;;;;;;;4.93;2.72;;;;;;;15.17;90.93;98541.22;5066113;28;20093;-37
2023/07/13 09:40:53;;;;;;;6.10;3.10;;;;;;;15.14;92.38;98546.66;5061844;28;20048;-38
2023/07/13 09:43:20;;;;;;;5.18;2.75;;;;;;;15.06;92.79;98545.53;5062741;28;20721;-37
2023/07/13 09:45:49;;;;;;;3.85;2.65;;;;;;;14.87;92.90;98511.13;5055859;28;20044;-39
2023/07/13 09:48:17;;;;;;;7.07;3.13;;;;;;;15.04;93.85;98540.41;5040964;28;20091;-38
2023/07/13 09:50:44;;;;;;;6.13;3.17;;;;;;;15.10;94.42;98531.28;5079475;28;20479;-38
2023/07/13 09:53:15;;;;;;;4.45;2.75;;;;;;;15.17;94.69;98537.78;5064845;28;20057;-37
2023/07/13 09:55:43;;;;;;;10.27;3.05;;;;;;;15.19;94.48;98536.69;5065738;28;20048;-37
2023/07/13 09:58:24;;;;;;;7.38;3.00;;;;;;;15.24;94.72;98531.97;5066528;28;20110;-39
2023/07/13 10:00:57;;;;;;;6.60;3.10;;;;;;;15.25;94.00;98530.19;5040159;28;20123;-38
2023/07/13 10:03:29;;;;;;;8.18;3.33;;;;;;;15.22;93.97;98531.25;5060717;28;20044;-38
2023/07/13 10:06:01;;;;;;;7.50;3.47;;;;;;;15.28;93.90;98533.41;5067471;28;20462;-38
2023/07/13 10:08:30;;;;;;;5.53;3.28;;;;;;;15.33;93.90;98543.59;5047509;28;20094;-39
2023/07/13 10:11:02;;;;;;;5.88;3.00;;;;;;;15.33;93.54;98534.88;5065581;28;20071;-40
2023/07/13 10:13:36;;;;;;;8.23;2.97;;;;;;;15.33;93.60;98538.34;5068996;28;20123;-39
2023/07/13 10:16:05;;;;;;;5.40;2.85;;;;;;;15.33;93.71;98540.13;5066921;28;20625;-38
2023/07/13 10:18:37;;;;;;;6.65;3.38;;;;;;;15.26;94.35;98534.47;5067738;28;20122;-39
2023/07/13 10:21:15;;;;;;;9.57;3.25;;;;;;;15.16;95.96;98538.72;5067412;28;20097;-39
2023/07/13 10:23:42;;;;;;;6.30;3.27;;;;;;;15.08;95.29;98531.38;5057081;28;20049;-40
2023/07/13 10:26:18;;;;;;;5.43;2.78;;;;;;;14.91;96.12;98517.84;5063992;28;20036;-39
2023/07/13 10:28:47;;;;;;;6.40;2.05;;;;;;;14.71;96.63;98495.66;5051593;28;20587;-39
2023/07/13 10:31:14;;;;;;;5.03;2.90;;;;;;;14.75;98.03;98534.63;5068560;28;20051;-39
2023/07/13 10:33:40;;;;;;;5.07;3.20;;;;;;;14.63;100.00;98535.44;5062770;28;20040;-38
2023/07/13 10:36:20;;;;;;;8.15;3.00;;;;;;;14.54;100.00;98548.34;5069390;28;20543;-38
2023/07/13 10:38:47;;;;;;;9.07;3.25;;;;;;;14.45;100.00;98535.84;5056553;28;20039;-40
2023/07/13 10:41:19;;;;;;;6.38;2.85;;;;;;;14.34;100.00;98540.00;5097625;28;20037;-39
2023/07/13 10:43:52;;;;;;;6.35;2.90;;;;;;;14.27;100.00;98545.78;5068419;28;20047;-40
2023/07/13 10:46:21;;;;;;;4.28;3.25;;;;;;;14.14;100.00;98545.75;5066685;28;20036;-40
2023/07/13 10:48:49;;;;;;;5.95;3.60;;;;;;;14.05;100.00;98548.16;5064122;28;20032;-39
2023/07/13 10:51:18;;;;;;;5.25;3.35;;;;;;;14.00;100.00;98553.69;5068450;28;20123;-38
2023/07/13 10:53:44;;;;;;;5.70;3.67;;;;;;;13.80;100.00;98528.03;5078541;28;20052;-38
2023/07/13 10:56:29;;;;;;;4.65;2.60;;;;;;;13.88;100.00;98559.72;5080817;28;20068;-40
2023/07/13 10:59:11;;;;;;;6.88;2.85;;;;;;;13.78;100.00;98551.63;5051162;28;20464;-39
2023/07/13 11:01:47;;;;;;;3.22;2.13;;;;;;;13.72;100.00;98546.81;5067252;28;20032;-39
2023/07/13 11:04:14;;;;;;;4.90;3.10;;;;;;;13.71;100.00;98552.16;5078571;28;20040;-38
2023/07/13 11:06:44;;;;;;;8.45;2.80;;;;;;;13.72;100.00;98551.19;5067277;28;20040;-40
2023/07/13 11:09:40;;;;;;;2.28;2.03;;;;;;;13.73;100.00;98556.31;5067118;28;20070;-39
2023/07/13 11:12:10;;;;;;;6.07;2.75;;;;;;;13.69;100.00;98543.56;5067493;28;20044;-39
2023/07/13 11:14:41;;;;;;;5.53;3.03;;;;;;;13.68;100.00;98544.50;5068892;28;20050;-39
2023/07/13 11:17:32;;;;;;;6.75;3.05;;;;;;;13.69;100.00;98544.41;5068951;28;20036;-39
2023/07/13 11:20:19;;;;;;;8.02;2.67;;;;;;;13.66;100.00;98547.19;5078660;28;20128;-38
2023/07/13 11:22:50;;;;;;;6.03;2.88;;;;;;;13.67;100.00;98548.88;5066979;28;20083;-39
2023/07/13 11:25:30;;;;;;;8.90;3.58;;;;;;;13.71;100.00;98545.13;5067524;28;20040;-39
2023/07/13 11:28:11;;;;;;;9.43;3.40;;;;;;;13.70;100.00;98537.41;5063915;28;20132;-38
2023/07/13 11:30:43;;;;;;;7.32;3.70;;;;;;;13.76;100.00;98542.25;5067672;28;20032;-40
2023/07/13 11:33:12;;;;;;;4.25;2.65;;;;;;;13.87;100.00;98545.81;5071642;28;20852;-39
2023/07/13 11:35:46;;;;;;;7.93;3.10;;;;;;;13.84;100.00;98546.00;5067441;28;20119;-39
2023/07/13 11:38:19;;;;;;;4.47;3.33;;;;;;;13.83;100.00;98546.94;5064538;28;20301;-39